Time;durP1;ratioP1;P1;durP2;ratioP2;P2;SDS_P1;SDS_P2;PMS_P1;PMS_P2;Temp;Humidity;BMP_temperature;BMP_pressure;BME280_temperature;BME280_humidity;BME280_pressure;Samples;Min_cycle;Max_cycle;Signal;HPM_P1;HPM_P2
2021/09/12 00:02:18;;;;;;;20.00;15.50;;;17.50;99.90;;;;;;5021813;28;20408;-51
2021/09/12 00:04:43;;;;;;;22.05;15.20;;;17.50;99.90;;;;;;5025903;28;20026;-48
2021/09/12 00:07:09;;;;;;;27.13;17.88;;;17.50;99.90;;;;;;5005939;28;20116;-51
2021/09/12 00:09:34;;;;;;;20.95;16.77;;;17.50;99.90;;;;;;5027282;28;20033;-49
2021/09/12 00:12:00;;;;;;;20.40;16.00;;;17.50;99.90;;;;;;5024506;28;20037;-54
2021/09/12 00:14:26;;;;;;;24.70;17.30;;;17.50;99.90;;;;;;5019972;28;20105;-52
2021/09/12 00:16:52;;;;;;;20.75;15.90;;;17.50;99.90;;;;;;5025248;28;20030;-50
2021/09/12 00:19:18;;;;;;;22.45;16.17;;;17.50;99.90;;;;;;5021786;28;20022;-49
2021/09/12 00:21:44;;;;;;;20.63;16.80;;;17.50;99.90;;;;;;5026293;28;20091;-51
2021/09/12 00:24:10;;;;;;;23.85;17.95;;;17.50;99.90;;;;;;5026765;28;20496;-51
2021/09/12 00:26:36;;;;;;;22.10;17.13;;;17.40;99.90;;;;;;5031034;28;20029;-50
2021/09/12 00:29:02;;;;;;;24.13;18.00;;;17.50;99.90;;;;;;5028396;28;20091;-48
2021/09/12 00:31:27;;;;;;;23.88;17.88;;;17.50;99.90;;;;;;5024472;28;20503;-50
2021/09/12 00:33:53;;;;;;;22.75;17.55;;;17.50;99.90;;;;;;5029330;28;20091;-49
2021/09/12 00:36:19;;;;;;;28.00;19.15;;;17.50;99.90;;;;;;5025527;28;20021;-50
2021/09/12 00:38:44;;;;;;;23.38;16.40;;;17.50;99.90;;;;;;5030304;28;20025;-49
2021/09/12 00:41:10;;;;;;;24.77;17.60;;;17.50;99.90;;;;;;5027532;28;20033;-49
2021/09/12 00:43:35;;;;;;;25.35;17.80;;;17.40;99.90;;;;;;5030966;28;20105;-50
2021/09/12 00:46:06;;;;;;;26.30;17.88;;;17.50;99.90;;;;;;5028120;28;20026;-50
2021/09/12 00:48:33;;;;;;;22.05;15.98;;;17.50;99.90;;;;;;5018413;28;20030;-52
2021/09/12 00:50:59;;;;;;;23.83;16.10;;;17.40;99.90;;;;;;5028821;28;20164;-51
2021/09/12 00:53:26;;;;;;;21.90;15.43;;;17.40;99.90;;;;;;5029808;28;20061;-51
2021/09/12 00:55:53;;;;;;;24.83;16.95;;;17.40;99.90;;;;;;5019032;28;20558;-49
2021/09/12 00:58:21;;;;;;;22.33;16.27;;;17.40;99.90;;;;;;5029853;28;20029;-53
2021/09/12 01:00:46;;;;;;;23.90;17.15;;;17.40;99.90;;;;;;5003105;28;20026;-54
2021/09/12 01:03:12;;;;;;;19.98;15.30;;;17.40;99.90;;;;;;5028482;28;20226;-51
2021/09/12 01:05:38;;;;;;;22.40;17.02;;;17.40;99.90;;;;;;5025310;28;20033;-51
2021/09/12 01:08:06;;;;;;;24.75;16.08;;;17.40;99.90;;;;;;5030590;28;20025;-53
2021/09/12 01:10:32;;;;;;;22.67;15.82;;;17.40;99.90;;;;;;5028486;28;20026;-53
2021/09/12 01:12:58;;;;;;;20.80;16.67;;;17.40;99.90;;;;;;5022444;28;20037;-52
2021/09/12 01:15:23;;;;;;;23.00;15.95;;;17.40;99.90;;;;;;5030244;28;20026;-55
2021/09/12 01:17:49;;;;;;;21.05;16.42;;;17.40;99.90;;;;;;5004898;28;20093;-53
2021/09/12 01:20:14;;;;;;;19.23;15.60;;;17.40;99.90;;;;;;5030915;28;20025;-53
2021/09/12 01:22:40;;;;;;;24.55;16.88;;;17.40;99.90;;;;;;5025312;28;20030;-56
2021/09/12 01:25:06;;;;;;;18.88;14.75;;;17.40;99.90;;;;;;5030392;28;20105;-51
2021/09/12 01:27:32;;;;;;;20.23;15.45;;;17.40;99.90;;;;;;5028043;28;20044;-51
2021/09/12 01:30:00;;;;;;;27.08;17.92;;;17.30;99.90;;;;;;5021759;28;20477;-54
2021/09/12 01:32:26;;;;;;;21.35;17.05;;;17.30;99.90;;;;;;5030324;28;20072;-52
2021/09/12 01:34:51;;;;;;;22.27;16.23;;;17.30;99.90;;;;;;5021984;28;20137;-52
2021/09/12 01:37:17;;;;;;;21.33;16.30;;;17.30;99.90;;;;;;5030804;28;20155;-50
2021/09/12 01:39:42;;;;;;;20.60;14.45;;;17.30;99.90;;;;;;5007101;28;20026;-50
2021/09/12 01:42:08;;;;;;;26.30;16.38;;;17.30;99.90;;;;;;5030050;28;20037;-55
2021/09/12 01:44:34;;;;;;;19.58;15.32;;;17.30;99.90;;;;;;5027121;28;20104;-52
2021/09/12 01:46:59;;;;;;;21.20;16.98;;;17.30;99.90;;;;;;5021785;28;20029;-54
2021/09/12 01:49:25;;;;;;;23.17;17.00;;;17.30;99.90;;;;;;5030522;28;20025;-50
2021/09/12 01:51:52;;;;;;;25.98;17.73;;;17.30;99.90;;;;;;5022141;28;20032;-49
2021/09/12 01:54:17;;;;;;;22.25;16.95;;;17.30;99.90;;;;;;5026442;28;20028;-54
2021/09/12 01:56:43;;;;;;;26.95;19.08;;;17.30;99.90;;;;;;5023974;28;20033;-53
2021/09/12 01:59:09;;;;;;;25.80;18.58;;;17.30;99.90;;;;;;5025914;28;20120;-52
2021/09/12 02:01:35;;;;;;;24.73;16.65;;;17.30;99.90;;;;;;5025116;28;20495;-50
2021/09/12 02:04:01;;;;;;;23.20;16.60;;;17.20;99.90;;;;;;5027273;28;20025;-53
2021/09/12 02:06:27;;;;;;;22.35;16.55;;;17.20;99.90;;;;;;5025437;28;20434;-52
2021/09/12 02:08:53;;;;;;;19.48;14.95;;;17.20;99.90;;;;;;5029318;28;20558;-54
2021/09/12 02:11:19;;;;;;;24.05;15.98;;;17.20;99.90;;;;;;5025813;28;20053;-53
2021/09/12 02:13:45;;;;;;;20.48;15.27;;;17.20;99.90;;;;;;5022589;28;20025;-54
2021/09/12 02:16:11;;;;;;;21.45;16.30;;;17.20;99.90;;;;;;5025849;28;20469;-51
2021/09/12 02:18:37;;;;;;;20.77;15.15;;;17.20;99.90;;;;;;5025090;28;20021;-53
2021/09/12 02:21:03;;;;;;;24.35;17.70;;;17.20;99.90;;;;;;5027032;28;20025;-50
2021/09/12 02:23:28;;;;;;;23.58;17.60;;;17.20;99.90;;;;;;4996737;28;20501;-50
2021/09/12 02:25:54;;;;;;;27.33;19.02;;;17.20;99.90;;;;;;5018090;28;20021;-50
2021/09/12 02:28:20;;;;;;;24.73;19.73;;;17.20;99.90;;;;;;5024042;28;20480;-48
2021/09/12 02:30:46;;;;;;;18.52;14.75;;;17.20;99.90;;;;;;5013464;28;20109;-52
2021/09/12 02:33:11;;;;;;;24.30;17.10;;;17.20;99.90;;;;;;5022788;28;20030;-51
2021/09/12 02:35:37;;;;;;;23.10;18.10;;;17.20;99.90;;;;;;5015753;28;20057;-49
2021/09/12 02:38:02;;;;;;;26.63;19.25;;;17.20;99.90;;;;;;5019810;28;20041;-53
2021/09/12 02:40:28;;;;;;;25.30;16.83;;;17.20;99.90;;;;;;5020724;28;20514;-52
2021/09/12 02:42:54;;;;;;;21.33;16.85;;;17.20;99.90;;;;;;5011818;28;20034;-49
2021/09/12 02:45:19;;;;;;;26.08;19.15;;;17.20;99.90;;;;;;5020530;28;20112;-51
2021/09/12 02:47:45;;;;;;;24.02;18.60;;;17.20;99.90;;;;;;5024376;28;20021;-49
2021/09/12 02:50:11;;;;;;;26.52;17.92;;;17.20;99.90;;;;;;4997982;28;20436;-51
2021/09/12 02:52:36;;;;;;;27.83;19.83;;;17.20;99.90;;;;;;4997598;28;20608;-49
2021/09/12 02:55:06;;;;;;;24.77;18.38;;;17.20;99.90;;;;;;5014081;28;20097;-51
2021/09/12 02:57:31;;;;;;;27.35;19.75;;;17.20;99.90;;;;;;5023215;28;20036;-51
2021/09/12 02:59:58;;;;;;;30.90;21.67;;;17.10;99.90;;;;;;5021900;28;20521;-52
2021/09/12 03:02:25;;;;;;;29.40;20.13;;;17.10;99.90;;;;;;5021055;28;20539;-53
2021/09/12 03:04:51;;;;;;;23.60;17.88;;;17.10;99.90;;;;;;5024084;28;20083;-52
2021/09/12 03:07:16;;;;;;;27.08;19.08;;;17.00;99.90;;;;;;5022264;28;20037;-50
2021/09/12 03:09:42;;;;;;;21.63;16.83;;;17.10;99.90;;;;;;5019036;28;20053;-49
2021/09/12 03:12:08;;;;;;;24.83;18.70;;;17.00;99.90;;;;;;5026673;28;20112;-52
2021/09/12 03:14:33;;;;;;;26.77;19.73;;;17.00;99.90;;;;;;5022386;28;20069;-51
2021/09/12 03:16:59;;;;;;;21.10;17.17;;;17.00;99.90;;;;;;5027852;28;20503;-50
2021/09/12 03:19:24;;;;;;;26.30;20.15;;;17.00;99.90;;;;;;5003522;28;20022;-51
2021/09/12 03:21:50;;;;;;;32.13;20.42;;;17.10;99.90;;;;;;5024097;28;20068;-51
2021/09/12 03:24:16;;;;;;;22.35;18.45;;;17.00;99.90;;;;;;5022269;28;20034;-51
2021/09/12 03:26:41;;;;;;;27.45;20.02;;;17.00;99.90;;;;;;5001072;28;20037;-50
2021/09/12 03:29:07;;;;;;;26.08;20.17;;;17.00;99.90;;;;;;5027093;28;20087;-52
2021/09/12 03:31:32;;;;;;;23.13;18.40;;;17.00;99.90;;;;;;5019260;28;20033;-53
2021/09/12 03:33:58;;;;;;;22.15;18.42;;;17.00;99.90;;;;;;5024878;28;20102;-49
2021/09/12 03:36:24;;;;;;;21.10;17.23;;;17.00;99.90;;;;;;5022391;28;20089;-51
2021/09/12 03:38:49;;;;;;;22.60;18.02;;;17.00;99.90;;;;;;5024880;28;20022;-51
2021/09/12 03:41:15;;;;;;;23.70;19.23;;;17.00;99.90;;;;;;5025020;28;20037;-52
2021/09/12 03:43:41;;;;;;;24.80;18.63;;;16.90;99.90;;;;;;5024007;28;20028;-51
2021/09/12 03:46:06;;;;;;;23.55;18.77;;;17.00;99.90;;;;;;5026542;28;20072;-52
2021/09/12 03:48:32;;;;;;;23.55;18.35;;;16.90;99.90;;;;;;5019507;28;20033;-51
2021/09/12 03:50:58;;;;;;;24.92;19.80;;;16.90;99.90;;;;;;5024207;28;20496;-49
2021/09/12 03:53:23;;;;;;;24.20;19.13;;;16.90;99.90;;;;;;5022393;28;20021;-53
2021/09/12 03:55:49;;;;;;;29.67;21.35;;;16.80;99.90;;;;;;5017212;28;20051;-49
2021/09/12 03:58:14;;;;;;;24.70;19.73;;;16.80;99.90;;;;;;5024140;28;20423;-51
2021/09/12 04:00:40;;;;;;;25.52;20.13;;;16.80;99.90;;;;;;5013197;28;20022;-51
2021/09/12 04:03:05;;;;;;;20.73;17.50;;;16.70;99.90;;;;;;5017552;28;20419;-50
2021/09/12 04:05:31;;;;;;;24.60;18.95;;;16.70;99.90;;;;;;5021348;28;20018;-49
2021/09/12 04:07:57;;;;;;;23.73;17.90;;;16.70;99.90;;;;;;5025702;28;20037;-52
2021/09/12 04:10:23;;;;;;;20.85;16.73;;;16.70;99.90;;;;;;5024473;28;20022;-52
2021/09/12 04:12:49;;;;;;;25.95;20.73;;;16.70;99.90;;;;;;5024665;28;20037;-52
2021/09/12 04:15:14;;;;;;;23.95;19.40;;;16.60;99.90;;;;;;5026722;28;20067;-53
2021/09/12 04:17:40;;;;;;;23.27;19.77;;;16.60;99.90;;;;;;5018616;28;20037;-53
2021/09/12 04:20:07;;;;;;;24.05;19.70;;;16.70;99.90;;;;;;5025608;28;20096;-54
2021/09/12 04:22:33;;;;;;;25.25;19.92;;;16.60;99.90;;;;;;5021154;28;20508;-52
2021/09/12 04:24:58;;;;;;;24.75;20.42;;;16.60;99.90;;;;;;5025072;28;20045;-49
2021/09/12 04:27:24;;;;;;;26.42;21.45;;;16.60;99.90;;;;;;5023961;28;20029;-50
2021/09/12 04:29:50;;;;;;;28.73;21.15;;;16.60;99.90;;;;;;5025093;28;20159;-50
2021/09/12 04:32:16;;;;;;;31.15;22.10;;;16.60;99.90;;;;;;5026425;28;21291;-52
2021/09/12 04:34:45;;;;;;;27.90;21.13;;;16.60;99.90;;;;;;5018193;28;20022;-52
2021/09/12 04:37:12;;;;;;;29.50;23.42;;;16.60;99.90;;;;;;5026368;28;20018;-56
2021/09/12 04:39:37;;;;;;;29.73;22.95;;;16.60;99.90;;;;;;5020786;28;20018;-53
2021/09/12 04:42:03;;;;;;;30.38;21.33;;;16.50;99.90;;;;;;5025722;28;20546;-50
2021/09/12 04:44:29;;;;;;;28.63;22.88;;;16.60;99.90;;;;;;5022888;28;20037;-54
2021/09/12 04:46:55;;;;;;;29.83;24.90;;;16.60;99.90;;;;;;5025601;28;20037;-52
2021/09/12 04:49:20;;;;;;;34.47;24.85;;;16.60;99.90;;;;;;5008313;28;20032;-50
2021/09/12 04:51:46;;;;;;;33.33;23.58;;;16.50;99.90;;;;;;5000623;28;20033;-54
2021/09/12 04:54:12;;;;;;;36.15;23.58;;;16.60;99.90;;;;;;5026031;28;20033;-53
2021/09/12 04:56:37;;;;;;;28.70;23.73;;;16.60;99.90;;;;;;5020263;28;20456;-51
2021/09/12 04:59:03;;;;;;;29.92;22.63;;;16.60;99.90;;;;;;5014803;28;20517;-53
2021/09/12 05:01:28;;;;;;;30.90;22.35;;;16.60;99.90;;;;;;5021539;28;20025;-50
2021/09/12 05:03:55;;;;;;;32.60;24.63;;;16.60;99.90;;;;;;5022704;28;20101;-54
2021/09/12 05:06:21;;;;;;;36.15;25.85;;;16.60;99.90;;;;;;5022110;28;20491;-51
2021/09/12 05:08:46;;;;;;;36.97;24.60;;;16.60;99.90;;;;;;5027040;28;20033;-56
2021/09/12 05:11:12;;;;;;;34.00;24.42;;;16.60;99.90;;;;;;5007612;28;20468;-53
2021/09/12 05:13:38;;;;;;;34.33;23.92;;;16.60;99.90;;;;;;5031459;28;20021;-49
2021/09/12 05:16:04;;;;;;;32.72;22.83;;;16.60;99.90;;;;;;5025144;28;20018;-49
2021/09/12 05:18:30;;;;;;;36.15;24.13;;;16.50;99.90;;;;;;5024987;28;20391;-51
2021/09/12 05:20:56;;;;;;;32.00;24.40;;;16.60;99.90;;;;;;5026083;28;20032;-54
2021/09/12 05:23:22;;;;;;;38.50;25.08;;;16.60;99.90;;;;;;5025844;28;20025;-50
2021/09/12 05:25:50;;;;;;;34.00;23.38;;;16.60;99.90;;;;;;5028377;28;20032;-51
2021/09/12 05:28:15;;;;;;;33.85;23.45;;;16.60;99.90;;;;;;5025864;28;20018;-50
2021/09/12 05:30:41;;;;;;;35.60;23.48;;;16.60;99.90;;;;;;5031074;28;20040;-52
2021/09/12 05:33:07;;;;;;;32.65;24.17;;;16.60;99.90;;;;;;5025357;28;20129;-53
2021/09/12 05:35:32;;;;;;;36.83;26.13;;;16.60;99.90;;;;;;5024709;28;20032;-49
2021/09/12 05:37:58;;;;;;;34.00;24.73;;;16.60;99.90;;;;;;5025784;28;20026;-51
2021/09/12 05:40:23;;;;;;;35.33;23.08;;;16.60;99.90;;;;;;5025157;28;20030;-51
2021/09/12 05:42:49;;;;;;;35.78;23.48;;;16.60;99.90;;;;;;5028140;28;20030;-53
2021/09/12 05:45:14;;;;;;;35.92;25.10;;;16.60;99.90;;;;;;5025152;28;20102;-49
2021/09/12 05:47:40;;;;;;;35.20;24.45;;;16.70;99.90;;;;;;5031150;28;20476;-50
2021/09/12 05:50:06;;;;;;;32.95;23.58;;;16.70;99.90;;;;;;5016928;28;20021;-49
2021/09/12 05:52:32;;;;;;;34.05;23.83;;;16.70;99.90;;;;;;5024511;28;20511;-49
2021/09/12 05:54:58;;;;;;;34.97;24.73;;;16.70;99.90;;;;;;5025012;28;20029;-50
2021/09/12 05:57:23;;;;;;;36.40;24.17;;;16.70;99.90;;;;;;5025231;28;20037;-53
2021/09/12 05:59:49;;;;;;;37.30;25.05;;;16.80;99.90;;;;;;5020004;28;20025;-50
2021/09/12 06:02:16;;;;;;;35.05;25.83;;;16.80;99.90;;;;;;5021930;28;20014;-49
2021/09/12 06:04:43;;;;;;;37.75;25.80;;;16.80;99.90;;;;;;5027443;28;20060;-54
2021/09/12 06:07:09;;;;;;;34.35;23.38;;;16.80;99.90;;;;;;5023712;28;20026;-50
2021/09/12 06:09:34;;;;;;;34.58;23.83;;;16.80;99.90;;;;;;5028411;28;20029;-48
2021/09/12 06:12:00;;;;;;;31.83;24.90;;;16.80;99.90;;;;;;5024879;28;20033;-49
2021/09/12 06:14:26;;;;;;;35.75;26.38;;;16.90;99.90;;;;;;5028730;28;20496;-55
2021/09/12 06:16:52;;;;;;;40.15;28.52;;;16.90;99.90;;;;;;5026534;28;20044;-50
2021/09/12 06:19:17;;;;;;;37.30;25.08;;;16.90;99.90;;;;;;5021701;28;20028;-51
2021/09/12 06:21:43;;;;;;;38.15;27.15;;;16.90;99.90;;;;;;5026280;28;20030;-50
2021/09/12 06:24:08;;;;;;;35.90;24.67;;;16.90;99.90;;;;;;5005099;28;20061;-50
2021/09/12 06:26:34;;;;;;;31.30;23.05;;;16.90;99.90;;;;;;5028036;28;20033;-51
2021/09/12 06:28:59;;;;;;;34.35;23.67;;;17.00;99.90;;;;;;5024843;28;20031;-51
2021/09/12 06:31:26;;;;;;;36.03;25.40;;;17.00;99.90;;;;;;5028675;28;20530;-51
2021/09/12 06:33:52;;;;;;;32.85;24.38;;;17.00;99.90;;;;;;5026359;28;20025;-49
2021/09/12 06:36:18;;;;;;;34.70;23.70;;;17.00;99.90;;;;;;5021294;28;20439;-49
2021/09/12 06:38:44;;;;;;;31.48;22.77;;;17.00;99.90;;;;;;5027082;28;20022;-49
2021/09/12 06:41:10;;;;;;;34.45;24.38;;;17.10;99.90;;;;;;5022937;28;20416;-48
2021/09/12 06:43:36;;;;;;;38.97;25.92;;;17.10;99.90;;;;;;5027716;28;20068;-48
2021/09/12 06:46:02;;;;;;;33.67;23.90;;;17.10;99.90;;;;;;5024230;28;20034;-49
2021/09/12 06:48:28;;;;;;;32.63;23.02;;;17.10;99.90;;;;;;5028385;28;20025;-51
2021/09/12 06:50:55;;;;;;;33.67;24.05;;;17.10;99.90;;;;;;5007934;28;20037;-51
2021/09/12 06:53:21;;;;;;;26.77;21.45;;;17.20;99.90;;;;;;5021319;28;20034;-49
2021/09/12 06:55:47;;;;;;;34.40;24.95;;;17.20;99.90;;;;;;5026462;28;20021;-49
2021/09/12 06:58:12;;;;;;;32.58;23.25;;;17.20;99.90;;;;;;5022680;28;20030;-51
2021/09/12 07:00:38;;;;;;;33.63;23.67;;;17.20;99.90;;;;;;5014715;28;20034;-49
2021/09/12 07:03:04;;;;;;;29.08;22.27;;;17.30;99.90;;;;;;5026432;28;20034;-53
2021/09/12 07:05:29;;;;;;;30.13;23.00;;;17.30;99.90;;;;;;5004914;28;20025;-54
2021/09/12 07:07:55;;;;;;;32.13;22.42;;;17.30;99.90;;;;;;5008547;28;20887;-49
2021/09/12 07:10:21;;;;;;;29.73;22.15;;;17.30;99.90;;;;;;5021506;28;20033;-49
2021/09/12 07:12:47;;;;;;;30.63;23.33;;;17.30;99.90;;;;;;5048512;22;20511;-47
2021/09/12 07:15:13;;;;;;;29.33;21.90;;;17.30;99.90;;;;;;5044371;28;20032;-47
2021/09/12 07:17:39;;;;;;;31.50;21.75;;;17.40;99.90;;;;;;5039407;28;20025;-47
2021/09/12 07:20:05;;;;;;;31.42;22.13;;;17.40;99.90;;;;;;5045955;28;20439;-47
2021/09/12 07:22:31;;;;;;;27.65;20.45;;;17.40;99.90;;;;;;5041811;28;20491;-48
2021/09/12 07:24:56;;;;;;;31.15;21.80;;;17.40;99.90;;;;;;5030084;28;20103;-49
2021/09/12 07:27:22;;;;;;;28.73;20.92;;;17.40;99.90;;;;;;5030318;28;20029;-48
2021/09/12 07:29:47;;;;;;;28.85;20.90;;;17.40;99.90;;;;;;5030399;28;20033;-49
2021/09/12 07:32:13;;;;;;;27.85;19.58;;;17.40;99.90;;;;;;5012344;28;20037;-48
2021/09/12 07:34:39;;;;;;;25.83;19.45;;;17.40;99.90;;;;;;5030118;28;20036;-48
2021/09/12 07:37:04;;;;;;;28.55;20.92;;;17.40;99.90;;;;;;5030531;28;20021;-49
2021/09/12 07:39:30;;;;;;;24.60;19.25;;;17.50;99.90;;;;;;5030507;28;20181;-49
2021/09/12 07:41:55;;;;;;;26.10;20.95;;;17.50;99.90;;;;;;5030272;28;20037;-47
2021/09/12 07:44:21;;;;;;;29.80;20.85;;;17.50;99.90;;;;;;5025473;28;20048;-49
2021/09/12 07:46:46;;;;;;;26.35;19.48;;;17.60;99.90;;;;;;5029926;28;20025;-48
2021/09/12 07:49:12;;;;;;;25.00;18.52;;;17.60;99.90;;;;;;5030080;28;20041;-49
2021/09/12 07:51:38;;;;;;;26.45;20.65;;;17.60;99.90;;;;;;5030093;28;20031;-53
2021/09/12 07:54:03;;;;;;;23.35;17.48;;;17.70;99.90;;;;;;5029994;28;20373;-51
2021/09/12 07:56:29;;;;;;;27.02;17.77;;;17.70;99.90;;;;;;5029809;28;20032;-47
2021/09/12 07:58:54;;;;;;;21.88;17.20;;;17.70;99.90;;;;;;5029846;28;20025;-52
2021/09/12 08:01:20;;;;;;;24.83;16.92;;;17.70;99.90;;;;;;5030009;28;20029;-50
2021/09/12 08:03:45;;;;;;;23.77;17.48;;;17.70;99.90;;;;;;5027630;28;20032;-48
2021/09/12 08:06:11;;;;;;;20.85;16.13;;;17.70;99.90;;;;;;5029900;28;20025;-49
2021/09/12 08:08:36;;;;;;;22.25;18.20;;;17.70;99.90;;;;;;5012303;28;20403;-49
2021/09/12 08:11:02;;;;;;;22.73;17.38;;;17.70;99.90;;;;;;5029861;28;20034;-49
2021/09/12 08:13:28;;;;;;;22.73;17.17;;;17.70;99.90;;;;;;5029478;28;20487;-46
2021/09/12 08:15:53;;;;;;;23.15;16.33;;;17.80;99.90;;;;;;5011901;28;20040;-49
2021/09/12 08:18:19;;;;;;;26.00;19.15;;;17.90;99.90;;;;;;5029833;28;20025;-50
2021/09/12 08:20:46;;;;;;;22.30;16.25;;;18.10;99.90;;;;;;5029512;28;20032;-50
2021/09/12 08:23:12;;;;;;;23.50;17.58;;;18.30;99.90;;;;;;5029582;28;20484;-48
2021/09/12 08:25:38;;;;;;;18.58;15.90;;;18.60;99.90;;;;;;5028924;28;20048;-48
2021/09/12 08:28:03;;;;;;;23.45;16.02;;;18.80;99.90;;;;;;5029671;28;20030;-50
2021/09/12 08:30:29;;;;;;;19.02;15.48;;;18.90;99.90;;;;;;5029723;28;20030;-50
2021/09/12 08:32:55;;;;;;;21.08;15.95;;;19.00;99.90;;;;;;5029494;28;20022;-49
2021/09/12 08:35:20;;;;;;;20.15;15.77;;;19.00;99.90;;;;;;5029296;28;20075;-49
2021/09/12 08:37:46;;;;;;;23.48;14.70;;;19.10;99.90;;;;;;5029888;28;20033;-49
2021/09/12 08:40:12;;;;;;;17.20;14.27;;;19.30;99.90;;;;;;5029711;28;20074;-48
2021/09/12 08:42:41;;;;;;;21.65;15.45;;;19.50;99.90;;;;;;5029229;28;20158;-49
2021/09/12 08:45:07;;;;;;;17.88;13.93;;;19.80;99.90;;;;;;5032729;28;20104;-48
2021/09/12 08:47:33;;;;;;;17.50;13.77;;;19.90;99.90;;;;;;5033641;28;20120;-49
2021/09/12 08:49:58;;;;;;;15.35;13.23;;;19.90;99.90;;;;;;5033197;28;20053;-49
2021/09/12 08:52:24;;;;;;;17.33;12.60;;;19.80;99.90;;;;;;5015547;28;20503;-48
2021/09/12 08:54:49;;;;;;;18.17;13.27;;;19.70;99.90;;;;;;5032996;28;20061;-48
2021/09/12 08:57:16;;;;;;;16.67;12.50;;;19.60;99.90;;;;;;5033136;28;20029;-49
2021/09/12 08:59:50;;;;;;;16.45;12.95;;;19.50;99.90;;;;;;5033149;28;20107;-50
2021/09/12 09:02:23;;;;;;;12.90;11.02;;;19.40;99.90;;;;;;5032886;28;20084;-49
2021/09/12 09:04:58;;;;;;;18.70;13.05;;;19.30;99.90;;;;;;5033034;28;20025;-47
2021/09/12 09:07:28;;;;;;;16.85;13.25;;;19.20;99.90;;;;;;5031475;28;20036;-49
2021/09/12 09:09:56;;;;;;;17.65;13.88;;;19.20;99.90;;;;;;5033217;28;20460;-49
2021/09/12 09:12:26;;;;;;;23.08;14.48;;;19.10;99.90;;;;;;5028645;28;20107;-48
2021/09/12 09:15:06;;;;;;;16.60;12.52;;;19.10;99.90;;;;;;5032297;28;20072;-49
2021/09/12 09:17:38;;;;;;;16.10;12.93;;;19.10;99.90;;;;;;5030022;28;20025;-49
2021/09/12 09:20:06;;;;;;;15.00;11.73;;;19.10;99.90;;;;;;5032694;28;20105;-50
2021/09/12 09:22:40;;;;;;;19.02;13.82;;;19.00;99.90;;;;;;5028117;28;20026;-51
2021/09/12 09:25:11;;;;;;;19.25;14.40;;;19.10;99.90;;;;;;5032233;28;20060;-50
2021/09/12 09:27:56;;;;;;;18.35;12.80;;;19.10;99.90;;;;;;5032747;28;20052;-50
2021/09/12 09:30:23;;;;;;;19.60;12.68;;;19.20;99.90;;;;;;5017798;28;20024;-51
2021/09/12 09:32:48;;;;;;;17.73;12.77;;;19.30;99.90;;;;;;5032420;28;20030;-51
2021/09/12 09:35:24;;;;;;;15.85;13.45;;;19.40;99.90;;;;;;5032387;28;20029;-51
2021/09/12 09:37:50;;;;;;;;;;;19.40;99.90;;;;;;5033315;28;20692;-52
2021/09/12 09:40:16;;;;;;;16.75;13.40;;;19.50;99.90;;;;;;5032708;28;19913;-51
2021/09/12 09:42:46;;;;;;;17.77;13.20;;;19.60;99.90;;;;;;5014505;28;20158;-51
2021/09/12 09:45:17;;;;;;;19.20;13.93;;;19.70;99.90;;;;;;5032216;28;20029;-52
2021/09/12 09:47:47;;;;;;;17.17;13.68;;;19.80;99.90;;;;;;5032319;28;20053;-51
2021/09/12 09:50:20;;;;;;;20.17;12.10;;;19.90;99.90;;;;;;5032155;28;20027;-50
2021/09/12 09:52:52;;;;;;;15.02;12.30;;;19.90;99.90;;;;;;5032118;28;20028;-51
2021/09/12 09:55:19;;;;;;;17.08;12.68;;;19.90;99.90;;;;;;5030451;28;20024;-51
2021/09/12 09:57:49;;;;;;;19.25;13.25;;;19.90;99.90;;;;;;5032195;28;20116;-51
2021/09/12 10:00:16;;;;;;;14.52;11.70;;;19.90;99.90;;;;;;5030439;28;20017;-53
2021/09/12 10:02:42;;;;;;;15.35;12.63;;;19.90;99.90;;;;;;5014249;28;20033;-50
2021/09/12 10:05:10;;;;;;;16.02;12.55;;;19.90;99.90;;;;;;5031779;28;20449;-52
2021/09/12 10:07:37;;;;;;;16.73;12.52;;;20.00;99.90;;;;;;5032172;28;20028;-49
2021/09/12 10:10:06;;;;;;;12.73;10.95;;;20.00;99.90;;;;;;5031874;28;20079;-52
2021/09/12 10:12:34;;;;;;;17.55;11.85;;;20.00;99.90;;;;;;5031533;28;20040;-54
2021/09/12 10:15:06;;;;;;;13.70;10.60;;;20.00;99.90;;;;;;5031342;28;20399;-50
2021/09/12 10:17:36;;;;;;;15.40;12.40;;;20.10;99.90;;;;;;5013704;28;20084;-50
2021/09/12 10:20:14;;;;;;;14.20;11.80;;;20.20;99.90;;;;;;5031702;28;20017;-51
2021/09/12 10:23:04;;;;;;;12.80;10.55;;;20.30;99.90;;;;;;5013714;28;20022;-54
2021/09/12 10:25:46;;;;;;;14.45;10.93;;;20.40;99.90;;;;;;5019586;28;20033;-50
2021/09/12 10:28:12;;;;;;;14.15;10.48;;;20.50;99.90;;;;;;5031426;28;20047;-53
2021/09/12 10:30:44;;;;;;;17.60;11.27;;;20.60;99.90;;;;;;5031362;28;20033;-50
2021/09/12 10:33:13;;;;;;;10.55;9.50;;;20.60;99.90;;;;;;5031539;28;20100;-51
2021/09/12 10:35:50;;;;;;;12.55;9.98;;;20.60;99.90;;;;;;5031242;28;20017;-50
2021/09/12 10:38:33;;;;;;;17.88;10.18;;;20.70;99.90;;;;;;5029946;28;20025;-50
2021/09/12 10:40:59;;;;;;;11.77;9.13;;;20.70;99.90;;;;;;5031151;28;20514;-50
2021/09/12 10:43:24;;;;;;;15.57;11.05;;;20.80;99.90;;;;;;5030936;28;20037;-51
2021/09/12 10:46:02;;;;;;;10.73;9.38;;;20.80;99.90;;;;;;5030801;28;20028;-50
2021/09/12 10:48:29;;;;;;;10.95;8.85;;;20.90;99.90;;;;;;5031037;28;20025;-51
2021/09/12 10:50:56;;;;;;;13.50;9.48;;;20.90;99.90;;;;;;5031140;28;20036;-52
2021/09/12 10:53:47;;;;;;;8.63;7.72;;;20.80;99.90;;;;;;5030215;28;20535;-51
2021/09/12 10:56:15;;;;;;;11.88;8.38;;;20.90;99.90;;;;;;5030289;28;20045;-52
2021/09/12 10:58:41;;;;;;;11.90;9.15;;;20.90;99.90;;;;;;5030705;28;20710;-50
2021/09/12 11:01:08;;;;;;;11.65;8.73;;;21.00;99.90;;;;;;5030684;28;20041;-50
2021/09/12 11:03:35;;;;;;;13.15;8.80;;;20.90;99.90;;;;;;5028162;28;20029;-52
2021/09/12 11:06:01;;;;;;;11.10;8.90;;;21.00;99.90;;;;;;5029749;28;20037;-50
2021/09/12 11:08:37;;;;;;;10.65;8.50;;;21.10;99.90;;;;;;5013055;28;20025;-51
2021/09/12 11:11:04;;;;;;;10.02;7.78;;;21.10;99.90;;;;;;5025373;28;20457;-49
2021/09/12 11:13:30;;;;;;;8.73;7.80;;;21.20;99.90;;;;;;5029816;28;20064;-51
2021/09/12 11:16:05;;;;;;;10.13;7.63;;;21.30;99.90;;;;;;5029898;28;20108;-51
2021/09/12 11:19:01;;;;;;;10.48;7.45;;;21.30;99.90;;;;;;5030432;28;20049;-53
2021/09/12 11:21:29;;;;;;;11.18;7.88;;;21.30;99.90;;;;;;4999507;28;20038;-52
2021/09/12 11:24:00;;;;;;;9.32;7.07;;;21.30;99.90;;;;;;5029545;28;20029;-50
2021/09/12 11:26:27;;;;;;;9.80;7.53;;;21.30;99.90;;;;;;5014934;28;20488;-52
2021/09/12 11:29:02;;;;;;;8.40;7.60;;;21.20;99.90;;;;;;5012364;28;20095;-51
2021/09/12 11:31:32;;;;;;;10.00;7.33;;;21.20;99.90;;;;;;5030091;28;20117;-51
2021/09/12 11:33:58;;;;;;;10.80;7.72;;;21.10;99.90;;;;;;5029973;28;20021;-52
2021/09/12 11:36:24;;;;;;;11.13;7.10;;;21.10;99.90;;;;;;5029712;28;20029;-53
2021/09/12 11:38:57;;;;;;;9.52;6.75;;;21.10;99.90;;;;;;5030298;28;20045;-50
2021/09/12 11:41:25;;;;;;;7.60;6.88;;;21.10;99.90;;;;;;5027880;28;20029;-50
2021/09/12 11:43:59;;;;;;;9.40;7.50;;;21.10;99.90;;;;;;5029791;28;20544;-51
2021/09/12 11:46:27;;;;;;;9.40;6.50;;;21.10;99.90;;;;;;5026467;28;20076;-51
2021/09/12 11:48:55;;;;;;;9.82;6.95;;;21.20;99.90;;;;;;5029742;28;20030;-51
2021/09/12 11:51:34;;;;;;;9.18;6.55;;;21.20;99.90;;;;;;5029495;28;20021;-53
2021/09/12 11:54:03;;;;;;;9.48;6.63;;;21.20;99.90;;;;;;5011803;28;20029;-51
2021/09/12 11:56:29;;;;;;;7.60;6.88;;;21.20;99.90;;;;;;5029083;28;20488;-51
2021/09/12 11:58:54;;;;;;;11.93;6.97;;;21.20;99.90;;;;;;5029765;28;20025;-51
2021/09/12 12:01:20;;;;;;;9.25;7.32;;;21.20;99.90;;;;;;5029589;28;20076;-51
2021/09/12 12:03:46;;;;;;;9.63;6.75;;;21.20;99.90;;;;;;5011600;28;20017;-53
2021/09/12 12:06:11;;;;;;;10.10;6.75;;;21.30;99.90;;;;;;5029258;28;20055;-51
2021/09/12 12:09:14;;;;;;;8.48;7.57;;;21.30;99.90;;;;;;5029702;28;20036;-50
2021/09/12 12:11:43;;;;;;;14.00;7.55;;;21.40;99.90;;;;;;5018793;28;20022;-52
2021/09/12 12:14:25;;;;;;;8.35;7.45;;;21.50;99.90;;;;;;5028869;28;20652;-49
2021/09/12 12:16:53;;;;;;;8.40;7.05;;;21.50;99.90;;;;;;5029614;28;20502;-50
2021/09/12 12:19:19;;;;;;;10.23;7.78;;;21.50;99.90;;;;;;5028720;28;20029;-54
2021/09/12 12:21:48;;;;;;;8.73;7.20;;;21.50;99.90;;;;;;5029374;28;20029;-51
2021/09/12 12:24:16;;;;;;;9.70;7.18;;;21.40;99.90;;;;;;5029266;28;20060;-51
2021/09/12 12:26:46;;;;;;;9.38;6.90;;;21.30;99.90;;;;;;5029379;28;20026;-53
2021/09/12 12:29:12;;;;;;;8.30;6.80;;;21.40;99.90;;;;;;5029430;28;20033;-53
2021/09/12 12:31:38;;;;;;;8.20;6.32;;;21.30;99.90;;;;;;5029399;28;20036;-52